createdAt,value
2023-05-17T00:00:49.105Z,1014.49
2023-05-17T00:01:49.108Z,1014.49
2023-05-17T00:02:49.190Z,1014.45
2023-05-17T00:03:49.111Z,1014.43
2023-05-17T00:04:49.151Z,1014.45
2023-05-17T00:05:49.238Z,1014.42
2023-05-17T00:06:49.102Z,1014.44
2023-05-17T00:07:49.112Z,1014.48
2023-05-17T00:08:49.099Z,1014.44
2023-05-17T00:09:49.102Z,1014.46
2023-05-17T00:10:49.104Z,1014.45
2023-05-17T00:11:49.110Z,1014.42
2023-05-17T00:12:49.097Z,1014.46
2023-05-17T00:13:49.099Z,1014.44
2023-05-17T00:14:49.113Z,1014.43
2023-05-17T00:15:49.102Z,1014.49
2023-05-17T00:16:49.095Z,1014.47
2023-05-17T00:17:49.168Z,1014.43
2023-05-17T00:18:49.175Z,1014.42
2023-05-17T00:19:49.212Z,1014.41
2023-05-17T00:20:49.095Z,1014.44
2023-05-17T00:21:49.202Z,1014.45
2023-05-17T00:22:49.092Z,1014.46
2023-05-17T00:23:49.089Z,1014.42
2023-05-17T00:24:49.099Z,1014.43
2023-05-17T00:25:49.089Z,1014.43
2023-05-17T00:26:49.091Z,1014.45
2023-05-17T00:27:49.101Z,1014.47
2023-05-17T00:28:49.088Z,1014.47
2023-05-17T00:29:49.097Z,1014.47
2023-05-17T00:30:49.090Z,1014.47
2023-05-17T00:31:49.096Z,1014.47
2023-05-17T00:32:49.144Z,1014.51
2023-05-17T00:33:49.091Z,1014.54
2023-05-17T00:34:49.123Z,1014.54
2023-05-17T00:35:49.092Z,1014.51
2023-05-17T00:36:49.077Z,1014.52
2023-05-17T00:37:49.185Z,1014.49
2023-05-17T00:38:49.077Z,1014.45
2023-05-17T00:39:49.085Z,1014.43
2023-05-17T00:40:49.090Z,1014.47
2023-05-17T00:41:49.092Z,1014.42
2023-05-17T00:42:49.097Z,1014.47
2023-05-17T00:43:49.095Z,1014.42
2023-05-17T00:44:49.090Z,1014.45
2023-05-17T00:45:49.078Z,1014.46
2023-05-17T00:46:49.074Z,1014.48
2023-05-17T00:47:49.245Z,1014.47
2023-05-17T00:48:49.102Z,1014.49
2023-05-17T00:49:49.074Z,1014.48
2023-05-17T00:50:49.075Z,1014.53
2023-05-17T00:51:49.075Z,1014.55
2023-05-17T00:52:49.093Z,1014.53
2023-05-17T00:53:49.175Z,1014.54
2023-05-17T00:54:49.077Z,1014.47
2023-05-17T00:55:49.075Z,1014.47
2023-05-17T00:56:49.066Z,1014.50
2023-05-17T00:57:49.064Z,1014.46
2023-05-17T00:58:49.075Z,1014.49
2023-05-17T00:59:49.072Z,1014.48
2023-05-17T01:00:49.066Z,1014.50
2023-05-17T01:01:49.064Z,1014.53
2023-05-17T01:02:49.190Z,1014.53
2023-05-17T01:03:49.185Z,1014.50
2023-05-17T01:04:49.127Z,1014.53
2023-05-17T01:05:49.076Z,1014.52
2023-05-17T01:06:49.059Z,1014.54
2023-05-17T01:07:49.056Z,1014.57
2023-05-17T01:08:49.064Z,1014.54
2023-05-17T01:09:49.174Z,1014.52
2023-05-17T01:10:49.052Z,1014.55
2023-05-17T01:11:49.063Z,1014.56
2023-05-17T01:12:49.073Z,1014.51
2023-05-17T01:13:49.057Z,1014.56
2023-05-17T01:14:49.057Z,1014.51
2023-05-17T01:15:49.061Z,1014.51
2023-05-17T01:16:49.051Z,1014.51
2023-05-17T01:17:49.070Z,1014.51
2023-05-17T01:18:49.352Z,1014.52
2023-05-17T01:19:49.178Z,1014.53
2023-05-17T01:20:49.048Z,1014.51
2023-05-17T01:21:49.049Z,1014.50
2023-05-17T01:22:49.045Z,1014.57
2023-05-17T01:23:49.073Z,1014.58
2023-05-17T01:24:49.041Z,1014.60
2023-05-17T01:25:49.134Z,1014.59
2023-05-17T01:26:49.040Z,1014.62
2023-05-17T01:27:49.045Z,1014.62
2023-05-17T01:28:49.040Z,1014.61
2023-05-17T01:29:49.038Z,1014.61
2023-05-17T01:30:49.050Z,1014.55
2023-05-17T01:31:49.045Z,1014.61
2023-05-17T01:32:49.103Z,1014.58
2023-05-17T01:33:49.126Z,1014.60
2023-05-17T01:34:49.036Z,1014.63
2023-05-17T01:35:49.044Z,1014.60
2023-05-17T01:36:49.031Z,1014.67
2023-05-17T01:37:49.036Z,1014.68
2023-05-17T01:38:49.038Z,1014.68
2023-05-17T01:39:49.032Z,1014.74
2023-05-17T01:40:49.030Z,1014.69
2023-05-17T01:41:49.217Z,1014.69
2023-05-17T01:42:49.027Z,1014.73
2023-05-17T01:43:49.035Z,1014.76
2023-05-17T01:44:49.028Z,1014.76
2023-05-17T01:45:49.028Z,1014.73
2023-05-17T01:46:49.022Z,1014.77
2023-05-17T01:47:49.080Z,1014.76
2023-05-17T01:48:49.054Z,1014.75
2023-05-17T01:49:49.022Z,1014.76
2023-05-17T01:50:49.030Z,1014.71
2023-05-17T01:51:49.034Z,1014.71
2023-05-17T01:52:49.017Z,1014.70
2023-05-17T01:53:49.019Z,1014.71
2023-05-17T01:54:49.025Z,1014.75
2023-05-17T01:55:49.028Z,1014.73
2023-05-17T01:56:49.036Z,1014.72
2023-05-17T01:57:49.158Z,1014.76
2023-05-17T01:58:49.033Z,1014.75
2023-05-17T01:59:49.017Z,1014.75
2023-05-17T02:00:49.009Z,1014.73
2023-05-17T02:01:49.016Z,1014.77
2023-05-17T02:02:49.044Z,1014.77
2023-05-17T02:03:49.064Z,1014.77
2023-05-17T02:04:49.129Z,1014.76
2023-05-17T02:05:49.019Z,1014.71
2023-05-17T02:06:49.004Z,1014.73
2023-05-17T02:07:49.011Z,1014.75
2023-05-17T02:08:49.021Z,1014.79
2023-05-17T02:09:49.009Z,1014.79
2023-05-17T02:10:49.000Z,1014.75
2023-05-17T02:11:49.003Z,1014.73
2023-05-17T02:12:49.003Z,1014.72
2023-05-17T02:13:49.043Z,1014.70
2023-05-17T02:14:49.077Z,1014.71
2023-05-17T02:15:49.007Z,1014.72
2023-05-17T02:16:49.001Z,1014.72
2023-05-17T02:17:49.153Z,1014.70
2023-05-17T02:18:49.092Z,1014.73
2023-05-17T02:19:49.009Z,1014.73
2023-05-17T02:20:48.997Z,1014.77
2023-05-17T02:21:49.014Z,1014.75
2023-05-17T02:22:49.000Z,1014.76
2023-05-17T02:23:48.993Z,1014.73
2023-05-17T02:24:49.048Z,1014.76
2023-05-17T02:25:49.002Z,1014.72
2023-05-17T02:26:48.990Z,1014.70
2023-05-17T02:27:48.996Z,1014.67
2023-05-17T02:28:48.988Z,1014.67
2023-05-17T02:29:49.108Z,1014.62
2023-05-17T02:30:48.988Z,1014.65
2023-05-17T02:31:48.995Z,1014.64
2023-05-17T02:32:49.047Z,1014.66
2023-05-17T02:33:49.014Z,1014.61
2023-05-17T02:34:48.988Z,1014.66
2023-05-17T02:35:48.987Z,1014.67
2023-05-17T02:36:48.979Z,1014.68
2023-05-17T02:37:48.986Z,1014.69
2023-05-17T02:38:48.982Z,1014.68
2023-05-17T02:39:48.988Z,1014.66
2023-05-17T02:40:48.979Z,1014.62
2023-05-17T02:41:48.983Z,1014.66
2023-05-17T02:42:48.976Z,1014.71
2023-05-17T02:43:48.976Z,1014.69
2023-05-17T02:44:48.978Z,1014.68
2023-05-17T02:45:49.078Z,1014.67
2023-05-17T02:46:49.029Z,1014.69
2023-05-17T02:47:49.038Z,1014.67
2023-05-17T02:48:48.970Z,1014.69
2023-05-17T02:49:48.970Z,1014.69
2023-05-17T02:50:48.970Z,1014.65
2023-05-17T02:51:48.969Z,1014.68
2023-05-17T02:52:48.981Z,1014.66
2023-05-17T02:53:48.961Z,1014.65
2023-05-17T02:54:48.975Z,1014.65
2023-05-17T02:55:48.968Z,1014.68
2023-05-17T02:56:48.964Z,1014.65
2023-05-17T02:57:48.969Z,1014.69
2023-05-17T02:58:48.961Z,1014.75
2023-05-17T02:59:48.957Z,1014.75
2023-05-17T03:00:48.961Z,1014.75
2023-05-17T03:01:49.054Z,1014.77
2023-05-17T03:02:49.083Z,1014.78
2023-05-17T03:03:49.301Z,1014.79
2023-05-17T03:04:49.037Z,1014.77
2023-05-17T03:05:48.950Z,1014.74
2023-05-17T03:06:48.961Z,1014.79
2023-05-17T03:07:48.949Z,1014.79
2023-05-17T03:08:48.951Z,1014.81
2023-05-17T03:09:48.963Z,1014.83
2023-05-17T03:10:48.950Z,1014.87
2023-05-17T03:11:48.951Z,1014.86
2023-05-17T03:12:48.948Z,1014.89
2023-05-17T03:13:48.949Z,1014.87
2023-05-17T03:14:48.955Z,1014.89
2023-05-17T03:15:48.950Z,1014.92
2023-05-17T03:16:48.948Z,1014.88
2023-05-17T03:17:49.138Z,1014.88
2023-05-17T03:18:49.124Z,1014.91
2023-05-17T03:19:49.047Z,1014.86
2023-05-17T03:20:48.937Z,1014.82
2023-05-17T03:21:48.936Z,1014.87
2023-05-17T03:22:48.948Z,1014.87
2023-05-17T03:23:48.937Z,1014.88
2023-05-17T03:24:48.942Z,1014.82
2023-05-17T03:25:48.948Z,1014.88
2023-05-17T03:26:48.951Z,1014.88
2023-05-17T03:27:49.023Z,1014.90
2023-05-17T03:28:48.933Z,1014.89
2023-05-17T03:29:48.933Z,1014.89
2023-05-17T03:30:48.962Z,1014.93
2023-05-17T03:31:48.930Z,1014.94
2023-05-17T03:32:49.020Z,1014.96
2023-05-17T03:33:49.196Z,1014.99
2023-05-17T03:34:48.927Z,1014.92
2023-05-17T03:35:48.925Z,1014.93
2023-05-17T03:36:48.947Z,1014.94
2023-05-17T03:37:48.940Z,1014.97
2023-05-17T03:38:48.921Z,1014.98
2023-05-17T03:39:48.921Z,1015.05
2023-05-17T03:40:48.922Z,1015.02
2023-05-17T03:41:48.933Z,1015.01
2023-05-17T03:42:48.920Z,1015.05
2023-05-17T03:43:48.918Z,1015.12
2023-05-17T03:44:48.930Z,1015.09
2023-05-17T03:45:48.916Z,1015.14
2023-05-17T03:46:48.912Z,1015.24
2023-05-17T03:47:48.949Z,1015.21
2023-05-17T03:48:48.999Z,1015.25
2023-05-17T03:49:49.261Z,1015.22
2023-05-17T03:50:48.922Z,1015.26
2023-05-17T03:51:48.909Z,1015.24
2023-05-17T03:52:48.948Z,1015.25
2023-05-17T03:53:48.907Z,1015.23
2023-05-17T03:54:48.922Z,1015.22
2023-05-17T03:55:48.904Z,1015.26
2023-05-17T03:56:48.915Z,1015.29
2023-05-17T03:57:48.908Z,1015.23
2023-05-17T03:58:48.922Z,1015.23
2023-05-17T03:59:48.899Z,1015.25
2023-05-17T04:00:48.908Z,1015.25
2023-05-17T04:01:48.903Z,1015.30
2023-05-17T04:02:48.980Z,1015.30
2023-05-17T04:03:48.917Z,1015.32
2023-05-17T04:04:48.973Z,1015.31
2023-05-17T04:05:49.066Z,1015.35
2023-05-17T04:06:48.908Z,1015.35
2023-05-17T04:07:48.936Z,1015.33
2023-05-17T04:08:48.921Z,1015.36
2023-05-17T04:09:48.919Z,1015.36
2023-05-17T04:10:48.904Z,1015.34
2023-05-17T04:11:48.921Z,1015.35
2023-05-17T04:12:48.895Z,1015.37
2023-05-17T04:13:48.894Z,1015.37
2023-05-17T04:14:48.899Z,1015.37
2023-05-17T04:15:48.900Z,1015.43
2023-05-17T04:16:48.908Z,1015.34
2023-05-17T04:17:48.960Z,1015.39
2023-05-17T04:18:48.962Z,1015.38
2023-05-17T04:19:48.933Z,1015.44
2023-05-17T04:20:48.899Z,1015.39
2023-05-17T04:21:48.986Z,1015.44
2023-05-17T04:22:48.896Z,1015.50
2023-05-17T04:23:48.894Z,1015.47
2023-05-17T04:24:48.899Z,1015.52
2023-05-17T04:25:48.883Z,1015.46
2023-05-17T04:26:48.894Z,1015.50
2023-05-17T04:27:48.886Z,1015.52
2023-05-17T04:28:48.900Z,1015.51
2023-05-17T04:29:48.899Z,1015.53
2023-05-17T04:30:48.917Z,1015.52
2023-05-17T04:31:48.976Z,1015.55
2023-05-17T04:32:48.914Z,1015.55
2023-05-17T04:33:48.995Z,1015.56
2023-05-17T04:34:48.880Z,1015.57
2023-05-17T04:35:48.891Z,1015.63
2023-05-17T04:36:48.883Z,1015.60
2023-05-17T04:37:49.030Z,1015.62
2023-05-17T04:38:48.883Z,1015.68
2023-05-17T04:39:48.877Z,1015.66
2023-05-17T04:40:48.877Z,1015.71
2023-05-17T04:41:49.011Z,1015.70
2023-05-17T04:42:48.875Z,1015.72
2023-05-17T04:43:48.881Z,1015.82
2023-05-17T04:44:48.892Z,1015.82
2023-05-17T04:45:48.870Z,1015.80
2023-05-17T04:46:48.896Z,1015.80
2023-05-17T04:47:48.929Z,1015.83
2023-05-17T04:48:48.957Z,1015.84
2023-05-17T04:49:48.863Z,1015.86
2023-05-17T04:50:48.873Z,1015.89
2023-05-17T04:51:48.869Z,1015.96
2023-05-17T04:52:48.870Z,1015.98
2023-05-17T04:53:49.018Z,1015.99
2023-05-17T04:54:48.869Z,1016.07
2023-05-17T04:55:48.866Z,1016.04
2023-05-17T04:56:48.874Z,1016.09
2023-05-17T04:57:48.872Z,1016.08
2023-05-17T04:58:50.468Z,1016.14
2023-05-17T04:59:48.866Z,1016.17
2023-05-17T05:00:49.010Z,1016.14
2023-05-17T05:01:48.858Z,1016.17
2023-05-17T05:02:48.893Z,1016.14
2023-05-17T05:03:48.875Z,1016.17
2023-05-17T05:04:48.884Z,1016.15
2023-05-17T05:05:48.858Z,1016.20
2023-05-17T05:06:48.865Z,1016.20
2023-05-17T05:07:48.851Z,1016.23
2023-05-17T05:08:48.859Z,1016.27
2023-05-17T05:09:48.944Z,1016.29
2023-05-17T05:10:48.856Z,1016.25
2023-05-17T05:11:48.855Z,1016.29
2023-05-17T05:12:48.860Z,1016.31
2023-05-17T05:13:48.853Z,1016.37
2023-05-17T05:14:48.851Z,1016.37
2023-05-17T05:15:48.845Z,1016.35
2023-05-17T05:16:48.860Z,1016.44
2023-05-17T05:17:48.963Z,1016.41
2023-05-17T05:18:49.016Z,1016.38
2023-05-17T05:19:48.882Z,1016.36
2023-05-17T05:20:48.858Z,1016.40
2023-05-17T05:21:48.842Z,1016.45
2023-05-17T05:22:48.848Z,1016.39
2023-05-17T05:23:48.848Z,1016.38
2023-05-17T05:24:48.841Z,1016.38
2023-05-17T05:25:48.945Z,1016.35
2023-05-17T05:26:48.842Z,1016.44
2023-05-17T05:27:48.840Z,1016.38
2023-05-17T05:28:48.838Z,1016.38
2023-05-17T05:29:48.837Z,1016.36
2023-05-17T05:30:48.840Z,1016.37
2023-05-17T05:31:48.833Z,1016.32
2023-05-17T05:32:48.905Z,1016.35
2023-05-17T05:33:48.903Z,1016.38
2023-05-17T05:34:48.924Z,1016.37
2023-05-17T05:35:48.887Z,1016.36
2023-05-17T05:36:48.848Z,1016.38
2023-05-17T05:37:48.869Z,1016.43
2023-05-17T05:38:48.849Z,1016.40
2023-05-17T05:39:48.832Z,1016.47
2023-05-17T05:40:48.832Z,1016.46
2023-05-17T05:41:48.990Z,1016.45
2023-05-17T05:42:48.841Z,1016.53
2023-05-17T05:43:48.831Z,1016.59
2023-05-17T05:44:48.830Z,1016.58
2023-05-17T05:45:48.830Z,1016.60
2023-05-17T05:46:48.831Z,1016.59
2023-05-17T05:47:48.888Z,1016.60
2023-05-17T05:48:48.848Z,1016.63
2023-05-17T05:49:48.826Z,1016.56
2023-05-17T05:50:48.829Z,1016.56
2023-05-17T05:51:48.832Z,1016.57
2023-05-17T05:52:48.837Z,1016.69
2023-05-17T05:53:48.820Z,1016.58
2023-05-17T05:54:48.824Z,1016.61
2023-05-17T05:55:48.822Z,1016.68
2023-05-17T05:56:48.826Z,1016.76
2023-05-17T05:57:48.916Z,1016.81
2023-05-17T05:58:48.829Z,1016.82
2023-05-17T05:59:48.814Z,1016.77
2023-05-17T06:00:48.830Z,1016.70
2023-05-17T06:01:48.827Z,1016.74
2023-05-17T06:02:48.864Z,1016.74
2023-05-17T06:03:48.854Z,1016.82
2023-05-17T06:04:48.827Z,1016.80
2023-05-17T06:05:48.975Z,1016.80
2023-05-17T06:06:48.967Z,1016.84
2023-05-17T06:07:48.819Z,1016.87
2023-05-17T06:08:48.817Z,1016.93
2023-05-17T06:09:48.815Z,1016.94
2023-05-17T06:10:48.827Z,1016.93
2023-05-17T06:11:48.814Z,1016.93
2023-05-17T06:12:48.851Z,1017.02
2023-05-17T06:13:49.025Z,1016.99
2023-05-17T06:14:48.832Z,1017.00
2023-05-17T06:15:48.817Z,1016.95
2023-05-17T06:16:48.827Z,1017.04
2023-05-17T06:17:48.930Z,1017.04
2023-05-17T06:18:51.282Z,1017.01
2023-05-17T06:19:48.841Z,1016.93
2023-05-17T06:20:48.812Z,1017.05
2023-05-17T06:21:48.833Z,1016.95
2023-05-17T06:22:48.839Z,1016.95
2023-05-17T06:23:48.813Z,1016.95
2023-05-17T06:24:48.822Z,1017.01
2023-05-17T06:25:48.807Z,1016.93
2023-05-17T06:26:48.815Z,1016.96
2023-05-17T06:27:48.806Z,1016.99
2023-05-17T06:28:48.810Z,1016.98
2023-05-17T06:29:49.088Z,1017.04
2023-05-17T06:30:48.819Z,1017.07
2023-05-17T06:31:48.808Z,1017.08
2023-05-17T06:32:48.862Z,1017.14
2023-05-17T06:33:48.877Z,1017.10
2023-05-17T06:34:48.801Z,1017.14
2023-05-17T06:35:56.754Z,1017.21
2023-05-17T06:36:48.803Z,1017.13
2023-05-17T06:37:48.804Z,1017.14
2023-05-17T06:38:48.802Z,1017.12
2023-05-17T06:39:55.862Z,1017.13
2023-05-17T06:40:48.845Z,1017.17
2023-05-17T06:41:48.809Z,1017.20
2023-05-17T06:42:48.810Z,1017.12
2023-05-17T06:43:48.805Z,1017.04
2023-05-17T06:44:48.806Z,1017.07
2023-05-17T06:45:48.956Z,1017.04
2023-05-17T06:46:48.813Z,1017.18
2023-05-17T06:47:48.880Z,1017.11
2023-05-17T06:48:51.210Z,1017.10
2023-05-17T06:49:48.795Z,1017.15
2023-05-17T06:50:48.798Z,1017.29
2023-05-17T06:51:48.797Z,1017.17
2023-05-17T06:52:48.794Z,1017.11
2023-05-17T06:53:48.811Z,1017.12
2023-05-17T06:54:48.801Z,1017.12
2023-05-17T06:55:48.793Z,1017.13
2023-05-17T06:56:48.814Z,1017.14
2023-05-17T06:57:48.803Z,1017.18
2023-05-17T06:58:48.802Z,1017.30
2023-05-17T06:59:48.795Z,1017.19
2023-05-17T07:00:48.804Z,1017.23
2023-05-17T07:01:48.905Z,1017.16
2023-05-17T07:02:48.863Z,1017.26
2023-05-17T07:03:48.943Z,1017.24
2023-05-17T07:04:48.853Z,1017.24
2023-05-17T07:05:48.802Z,1017.26
2023-05-17T07:06:48.793Z,1017.30
2023-05-17T07:07:48.795Z,1017.21
2023-05-17T07:08:48.799Z,1017.27
2023-05-17T07:09:48.799Z,1017.26
2023-05-17T07:10:48.790Z,1017.32
2023-05-17T07:11:48.791Z,1017.32
2023-05-17T07:12:48.800Z,1017.30
2023-05-17T07:13:48.799Z,1017.37
2023-05-17T07:14:48.794Z,1017.33
2023-05-17T07:15:48.800Z,1017.36
2023-05-17T07:16:48.788Z,1017.32
2023-05-17T07:17:49.092Z,1017.33
2023-05-17T07:18:48.911Z,1017.31
2023-05-17T07:19:48.907Z,1017.34
2023-05-17T07:20:48.786Z,1017.33
2023-05-17T07:21:48.794Z,1017.28
2023-05-17T07:22:48.794Z,1017.28
2023-05-17T07:23:48.795Z,1017.37
2023-05-17T07:24:48.790Z,1017.34
2023-05-17T07:25:48.800Z,1017.38
2023-05-17T07:26:49.798Z,1017.44
2023-05-17T07:27:48.795Z,1017.49
2023-05-17T07:28:48.791Z,1017.48
2023-05-17T07:29:48.806Z,1017.47
2023-05-17T07:30:48.788Z,1017.44
2023-05-17T07:31:48.806Z,1017.54
2023-05-17T07:32:48.893Z,1017.57
2023-05-17T07:33:48.945Z,1017.63
2023-05-17T07:34:48.791Z,1017.68
2023-05-17T07:35:48.833Z,1017.70
2023-05-17T07:36:48.801Z,1017.75
2023-05-17T07:37:48.804Z,1017.74
2023-05-17T07:38:48.793Z,1017.76
2023-05-17T07:39:48.791Z,1017.85
2023-05-17T07:40:48.793Z,1018.14
2023-05-17T07:41:48.808Z,1018.11
2023-05-17T07:42:48.836Z,1017.98
2023-05-17T07:43:48.796Z,1018.52
2023-05-17T07:44:48.792Z,1018.22
2023-05-17T07:45:48.795Z,1018.74
2023-05-17T07:46:48.828Z,1019.51
2023-05-17T07:47:48.836Z,1018.84
2023-05-17T07:48:48.878Z,1018.27
2023-05-17T07:49:48.946Z,1018.79
2023-05-17T07:50:48.799Z,1019.57
2023-05-17T07:51:48.805Z,1022.19
2023-05-17T07:52:48.804Z,1028.49
2023-05-17T07:53:48.821Z,1030.02
2023-05-17T07:54:48.807Z,1030.17
2023-05-17T07:55:48.813Z,1030.02
2023-05-17T07:56:48.797Z,1030.26
2023-05-17T07:57:48.815Z,1029.55
2023-05-17T07:58:48.813Z,1028.59
2023-05-17T07:59:48.801Z,1028.82
2023-05-17T08:00:48.819Z,1028.35
2023-05-17T08:01:48.819Z,1027.04
2023-05-17T08:02:48.849Z,1026.36
2023-05-17T08:03:48.812Z,1026.04
2023-05-17T08:04:48.835Z,1026.75
2023-05-17T08:05:48.870Z,1026.96
2023-05-17T08:06:48.834Z,1025.98
2023-05-17T08:07:48.822Z,1025.02
2023-05-17T08:08:48.823Z,1024.98
2023-05-17T08:09:48.835Z,1025.15
2023-05-17T08:10:48.827Z,1025.67
2023-05-17T08:11:48.846Z,1025.62
2023-05-17T08:12:48.834Z,1024.70
2023-05-17T08:13:48.837Z,1023.32
2023-05-17T08:14:48.855Z,1023.25
2023-05-17T08:15:50.162Z,1023.70
2023-05-17T08:16:48.856Z,1023.03
2023-05-17T08:17:48.982Z,1022.64
2023-05-17T08:18:48.963Z,1022.50
2023-05-17T08:19:48.889Z,1022.85
2023-05-17T08:20:48.864Z,1022.77
2023-05-17T08:21:48.895Z,1022.23
2023-05-17T08:22:48.877Z,1021.86
2023-05-17T08:23:48.884Z,1021.88
2023-05-17T08:24:48.896Z,1021.64
2023-05-17T08:25:48.898Z,1021.45
2023-05-17T08:26:48.906Z,1021.45
2023-05-17T08:27:48.951Z,1021.35
2023-05-17T08:28:48.921Z,1021.28
2023-05-17T08:29:48.932Z,1021.25
2023-05-17T08:30:48.939Z,1021.07
2023-05-17T08:31:48.944Z,1020.80
2023-05-17T08:32:49.085Z,1020.74
2023-05-17T08:33:49.001Z,1020.64
2023-05-17T08:34:48.971Z,1020.57
2023-05-17T08:35:48.975Z,1020.49
2023-05-17T08:36:49.059Z,1020.46
2023-05-17T08:37:49.224Z,1020.39
2023-05-17T08:38:49.005Z,1020.42
2023-05-17T08:39:49.044Z,1020.40
2023-05-17T08:40:49.025Z,1020.45
2023-05-17T08:41:49.046Z,1020.41
2023-05-17T08:42:49.050Z,1020.43
2023-05-17T08:43:49.084Z,1020.42
2023-05-17T08:44:49.075Z,1020.39
2023-05-17T08:45:49.087Z,1020.26
2023-05-17T08:46:49.095Z,1020.19
2023-05-17T08:47:49.178Z,1020.15
2023-05-17T08:48:49.197Z,1020.14
2023-05-17T08:49:49.135Z,1020.16
2023-05-17T08:50:49.152Z,1020.17
2023-05-17T08:51:49.166Z,1020.21
2023-05-17T08:52:49.203Z,1020.17
2023-05-17T08:53:49.235Z,1020.19
2023-05-17T08:54:49.196Z,1020.18
2023-05-17T08:55:49.214Z,1020.03
2023-05-17T08:56:49.230Z,1020.08
2023-05-17T08:57:49.248Z,1020.00
2023-05-17T08:58:56.606Z,1020.04
2023-05-17T08:59:49.272Z,1020.00
2023-05-17T09:00:49.288Z,1019.96
2023-05-17T09:01:49.297Z,1019.94
2023-05-17T09:02:49.395Z,1019.88
2023-05-17T09:03:49.358Z,1019.88
2023-05-17T09:04:49.447Z,1019.86
2023-05-17T09:05:49.389Z,1019.76
2023-05-17T09:06:49.372Z,1019.82
2023-05-17T09:07:49.395Z,1019.75
2023-05-17T09:08:49.405Z,1019.72
2023-05-17T09:09:49.448Z,1019.69
2023-05-17T09:10:49.447Z,1019.71
2023-05-17T09:11:49.452Z,1019.64
2023-05-17T09:12:49.474Z,1019.66
2023-05-17T09:13:49.506Z,1019.63
2023-05-17T09:14:49.513Z,1019.63
2023-05-17T09:15:49.522Z,1019.66
2023-05-17T09:16:49.530Z,1019.65
2023-05-17T09:17:49.688Z,1019.70
2023-05-17T09:18:49.651Z,1019.73
2023-05-17T09:19:49.647Z,1019.71
2023-05-17T09:20:49.602Z,1019.79
2023-05-17T09:21:49.625Z,1019.78
2023-05-17T09:22:49.635Z,1019.78
2023-05-17T09:24:01.680Z,1019.69
2023-05-17T09:24:49.672Z,1019.72
2023-05-17T09:25:49.740Z,1019.69
2023-05-17T09:26:49.719Z,1019.71
2023-05-17T09:27:49.734Z,1019.74
2023-05-17T09:28:49.753Z,1019.70
2023-05-17T09:29:49.781Z,1019.66
2023-05-17T09:30:50.196Z,1019.70
2023-05-17T09:31:49.812Z,1019.73
2023-05-17T09:33:49.939Z,1019.80
2023-05-17T09:34:49.893Z,1019.78
2023-05-17T09:35:49.886Z,1019.84
2023-05-17T09:36:49.906Z,1019.86
2023-05-17T09:37:49.929Z,1019.92
2023-05-17T09:38:49.943Z,1019.85
2023-05-17T09:39:49.966Z,1019.91
2023-05-17T09:40:49.980Z,1019.87
2023-05-17T09:41:50.020Z,1019.95
2023-05-17T09:42:50.028Z,1019.94
2023-05-17T09:43:50.048Z,1019.95
2023-05-17T09:44:50.064Z,1019.98
2023-05-17T09:45:50.081Z,1020.03
2023-05-17T09:46:50.098Z,1020.11
2023-05-17T09:47:50.284Z,1020.11
2023-05-17T09:48:50.336Z,1020.17
2023-05-17T09:49:50.185Z,1020.09
2023-05-17T09:50:50.186Z,1020.17
2023-05-17T09:51:50.210Z,1020.15
2023-05-17T09:52:50.223Z,1020.09
2023-05-17T09:53:50.262Z,1020.05
2023-05-17T09:54:50.270Z,1019.99
2023-05-17T09:55:50.307Z,1020.02
2023-05-17T09:56:50.319Z,1020.13
2023-05-17T09:57:50.386Z,1020.19
2023-05-17T09:58:50.361Z,1020.26
2023-05-17T09:59:50.383Z,1020.32
2023-05-17T10:00:50.413Z,1020.34
2023-05-17T10:01:50.423Z,1020.36
2023-05-17T10:02:50.528Z,1020.42
2023-05-17T10:03:50.480Z,1020.57
2023-05-17T10:04:50.543Z,1020.78
2023-05-17T10:05:50.514Z,1020.85
2023-05-17T10:06:52.446Z,1020.90
2023-05-17T10:07:50.555Z,1020.94
2023-05-17T10:08:50.581Z,1020.96
2023-05-17T10:09:50.618Z,1020.98
2023-05-17T10:10:50.624Z,1021.07
2023-05-17T10:11:50.654Z,1021.26
2023-05-17T10:12:50.689Z,1021.28
2023-05-17T10:13:50.775Z,1021.21
2023-05-17T10:14:50.742Z,1021.24
2023-05-17T10:15:50.741Z,1021.25
2023-05-17T10:16:50.765Z,1021.29
2023-05-17T10:17:50.800Z,1021.21
2023-05-17T10:18:50.878Z,1021.12
2023-05-17T10:19:50.959Z,1021.04
2023-05-17T10:20:50.858Z,1021.11
2023-05-17T10:21:50.920Z,1021.18
2023-05-17T10:22:50.918Z,1021.06
2023-05-17T10:23:50.928Z,1020.99
2023-05-17T10:24:50.958Z,1021.14
2023-05-17T10:25:50.978Z,1021.24
2023-05-17T10:26:51.012Z,1021.07
2023-05-17T10:27:51.024Z,1021.06
2023-05-17T10:28:51.049Z,1021.14
2023-05-17T10:29:51.115Z,1021.27
2023-05-17T10:30:51.092Z,1021.25
2023-05-17T10:31:51.327Z,1021.16
2023-05-17T10:32:51.231Z,1021.21
2023-05-17T10:33:51.214Z,1021.19
2023-05-17T10:35:01.433Z,1021.09
2023-05-17T10:35:51.209Z,1021.00
2023-05-17T10:36:51.233Z,1021.04
2023-05-17T10:37:51.265Z,1020.92
2023-05-17T10:38:51.282Z,1020.92
2023-05-17T10:39:51.305Z,1021.00
2023-05-17T10:40:51.331Z,1020.96
2023-05-17T10:41:52.800Z,1020.98
2023-05-17T10:42:51.372Z,1020.91
2023-05-17T10:43:51.399Z,1020.98
2023-05-17T10:44:51.418Z,1020.93
2023-05-17T10:45:51.475Z,1020.91
2023-05-17T10:46:51.491Z,1020.82
2023-05-17T10:47:51.554Z,1020.85
2023-05-17T10:48:51.575Z,1020.84
2023-05-17T10:49:51.564Z,1020.84
2023-05-17T10:51:01.204Z,1020.75
2023-05-17T10:51:51.595Z,1020.64
2023-05-17T10:52:51.597Z,1020.61
2023-05-17T10:53:51.620Z,1020.57
2023-05-17T10:54:51.642Z,1020.55
2023-05-17T10:55:51.664Z,1020.26
2023-05-17T10:56:51.686Z,1019.57
2023-05-17T10:57:51.707Z,1019.22
2023-05-17T10:58:51.721Z,1019.12
2023-05-17T10:59:51.749Z,1019.12
2023-05-17T11:00:53.265Z,1019.10
2023-05-17T11:01:51.975Z,1019.07
2023-05-17T11:02:51.844Z,1019.11
2023-05-17T11:03:51.825Z,1019.09
2023-05-17T11:04:51.847Z,1019.07
2023-05-17T11:05:52.417Z,1018.97
2023-05-17T11:06:51.988Z,1019.01
2023-05-17T11:07:51.905Z,1019.02
2023-05-17T11:08:51.914Z,1018.93
2023-05-17T11:09:51.935Z,1018.96
2023-05-17T11:10:51.962Z,1018.95
2023-05-17T11:11:51.972Z,1018.98
2023-05-17T11:12:51.986Z,1018.94
2023-05-17T11:13:52.027Z,1018.93
2023-05-17T11:14:52.022Z,1018.92
2023-05-17T11:15:52.053Z,1018.96
2023-05-17T11:16:52.114Z,1018.92
2023-05-17T11:17:52.193Z,1018.94
2023-05-17T11:18:52.308Z,1018.96
2023-05-17T11:19:52.192Z,1018.99
2023-05-17T11:20:52.410Z,1018.95
2023-05-17T11:21:52.154Z,1019.00
2023-05-17T11:22:52.156Z,1019.01
2023-05-17T11:23:52.169Z,1018.94
2023-05-17T11:24:52.189Z,1019.07
2023-05-17T11:25:54.157Z,1018.93
2023-05-17T11:26:52.226Z,1018.99
2023-05-17T11:27:52.242Z,1018.98
2023-05-17T11:28:52.250Z,1018.93
2023-05-17T11:29:52.273Z,1018.98
2023-05-17T11:30:52.271Z,1018.91
2023-05-17T11:31:52.284Z,1018.91
2023-05-17T11:32:52.409Z,1018.95
2023-05-17T11:33:52.375Z,1018.86
2023-05-17T11:34:52.338Z,1018.92
2023-05-17T11:35:52.342Z,1018.93
2023-05-17T11:36:52.389Z,1019.02
2023-05-17T11:37:52.390Z,1019.02
2023-05-17T11:38:58.329Z,1019.00
2023-05-17T11:39:53.475Z,1018.97
2023-05-17T11:40:52.424Z,1018.99
2023-05-17T11:41:52.452Z,1018.96
2023-05-17T11:42:52.446Z,1018.94
2023-05-17T11:43:52.477Z,1018.96
2023-05-17T11:44:52.474Z,1018.92
2023-05-17T11:45:53.714Z,1018.90
2023-05-17T11:46:52.507Z,1018.94
2023-05-17T11:47:52.632Z,1018.91
2023-05-17T11:48:52.584Z,1018.91
2023-05-17T11:49:54.325Z,1018.84
2023-05-17T11:50:52.558Z,1018.86
2023-05-17T11:51:52.577Z,1018.74
2023-05-17T11:52:52.582Z,1018.65
2023-05-17T11:53:52.588Z,1018.83
2023-05-17T11:54:52.606Z,1018.83
2023-05-17T11:55:52.648Z,1018.93
2023-05-17T11:56:52.633Z,1018.87
2023-05-17T11:57:52.639Z,1018.96
2023-05-17T11:58:52.698Z,1018.88
2023-05-17T11:59:52.674Z,1018.93
2023-05-17T12:00:52.730Z,1018.99
2023-05-17T12:01:52.707Z,1019.00
2023-05-17T12:02:52.829Z,1018.93
2023-05-17T12:03:52.724Z,1018.94
2023-05-17T12:04:52.835Z,1018.91
2023-05-17T12:05:52.850Z,1018.92
2023-05-17T12:06:53.343Z,1018.87